Permanente, California
Current Conditions -  °F | °C
As of 7:56 AM on Sunday 25 Jan 2015 (Local Time) from KNUQ Reporting Station
Clear Clear  
Wind Chill: 42°   Ceiling: Unl
Heat Index: 44°   Visibility: 8mi
Dew Point: 40°   Wind: 5mph
Humidity: 85%   Direction: 270°W
Pressure: 30.15"   Gusts: NA
Location:  37.305°N, 122.094°W
Report Text: KNUQ 251556Z 27004KT 8SM CLR 07/04 A3015 RMK AO2 SLP212 T00670044
Loading
Personal Weather Stations






























Interactive Weather Map New forecast layout! Learn more

10-Day Weather Forecast

Advertisements
Track Severe Weather on mobile